createdAt,value
2019-04-16T00:00:53.873Z,81.96
2019-04-16T00:01:53.782Z,82.15
2019-04-16T00:02:53.783Z,82.05
2019-04-16T00:03:54.815Z,82.62
2019-04-16T00:04:56.585Z,82.53
2019-04-16T00:05:53.464Z,83.19
2019-04-16T00:06:53.474Z,83.67
2019-04-16T00:07:53.533Z,83.58
2019-04-16T00:08:54.133Z,84.14
2019-04-16T00:09:53.111Z,83.76
2019-04-16T00:10:53.021Z,84.52
2019-04-16T00:11:52.989Z,83.76
2019-04-16T00:12:52.874Z,84.05
2019-04-16T00:13:52.801Z,84.33
2019-04-16T00:14:52.684Z,84.62
2019-04-16T00:15:52.600Z,84.48
2019-04-16T00:16:54.562Z,84.29
2019-04-16T00:17:52.447Z,84.58
2019-04-16T00:18:58.041Z,85.05
2019-04-16T00:19:52.330Z,85.15
2019-04-16T00:20:52.184Z,85.62
2019-04-16T00:21:52.095Z,85.62
2019-04-16T00:22:55.558Z,85.62
2019-04-16T00:23:51.925Z,86.00
2019-04-16T00:24:51.841Z,86.86
2019-04-16T00:25:52.055Z,85.91
2019-04-16T00:26:51.670Z,86.76
2019-04-16T00:27:51.702Z,86.57
2019-04-16T00:28:51.503Z,86.57
2019-04-16T00:29:51.479Z,86.57
2019-04-16T00:30:51.331Z,87.14
2019-04-16T00:31:51.249Z,87.34
2019-04-16T00:32:51.226Z,87.62
2019-04-16T00:33:51.082Z,87.14
2019-04-16T00:34:51.005Z,87.43
2019-04-16T00:35:51.006Z,88.38
2019-04-16T00:36:50.841Z,88.38
2019-04-16T00:37:51.637Z,88.09
2019-04-16T00:38:53.844Z,88.67
2019-04-16T00:39:50.646Z,88.47
2019-04-16T00:40:50.485Z,88.67
2019-04-16T00:41:50.416Z,89.09
2019-04-16T00:42:50.342Z,89.00
2019-04-16T00:43:50.345Z,88.81
2019-04-16T00:44:50.150Z,89.57
2019-04-16T00:45:50.062Z,89.57
2019-04-16T00:46:49.981Z,89.38
2019-04-16T00:47:51.410Z,89.28
2019-04-16T00:48:49.824Z,89.57
2019-04-16T00:49:49.725Z,89.86
2019-04-16T00:50:49.681Z,89.67
2019-04-16T00:51:49.552Z,90.33
2019-04-16T00:52:49.490Z,89.86
2019-04-16T00:53:49.397Z,90.14
2019-04-16T00:54:49.418Z,90.14
2019-04-16T00:55:49.217Z,90.14
2019-04-16T00:56:49.136Z,90.52
2019-04-16T00:57:51.160Z,90.80
2019-04-16T00:58:49.335Z,90.80
2019-04-16T00:59:48.881Z,90.99
2019-04-16T01:00:48.825Z,90.80
2019-04-16T01:01:48.709Z,90.80
2019-04-16T01:02:48.631Z,91.47
2019-04-16T01:03:48.548Z,91.28
2019-04-16T01:04:49.466Z,91.38
2019-04-16T01:05:48.371Z,91.56
2019-04-16T01:06:48.280Z,91.56
2019-04-16T01:07:48.193Z,91.85
2019-04-16T01:08:54.597Z,91.94
2019-04-16T01:09:48.025Z,91.94
2019-04-16T01:10:47.939Z,91.56
2019-04-16T01:11:49.018Z,91.99
2019-04-16T01:12:47.881Z,91.99
2019-04-16T01:13:47.699Z,92.37
2019-04-16T01:14:47.690Z,91.99
2019-04-16T01:15:47.516Z,92.75
2019-04-16T01:16:47.497Z,92.28
2019-04-16T01:17:47.348Z,92.85
2019-04-16T01:18:47.345Z,93.23
2019-04-16T01:19:47.172Z,92.75
2019-04-16T01:20:47.120Z,92.85
2019-04-16T01:21:47.008Z,93.04
2019-04-16T01:22:47.538Z,93.23
2019-04-16T01:23:49.350Z,93.51
2019-04-16T01:24:51.387Z,93.23
2019-04-16T01:25:46.666Z,93.04
2019-04-16T01:26:46.579Z,92.85
2019-04-16T01:27:47.635Z,93.41
2019-04-16T01:28:46.428Z,93.51
2019-04-16T01:29:46.333Z,93.60
2019-04-16T01:30:46.268Z,93.89
2019-04-16T01:31:46.163Z,93.99
2019-04-16T01:32:46.187Z,93.89
2019-04-16T01:33:46.736Z,93.99
2019-04-16T01:34:47.127Z,93.89
2019-04-16T01:35:51.205Z,93.80
2019-04-16T01:36:45.726Z,94.18
2019-04-16T01:37:45.702Z,94.27
2019-04-16T01:38:45.577Z,94.37
2019-04-16T01:39:47.598Z,93.89
2019-04-16T01:40:47.386Z,94.56
2019-04-16T01:41:45.302Z,93.99
2019-04-16T01:42:45.327Z,94.46
2019-04-16T01:43:45.148Z,94.32
2019-04-16T01:44:53.019Z,95.03
2019-04-16T01:45:44.960Z,95.03
2019-04-16T01:46:44.874Z,94.93
2019-04-16T01:47:44.850Z,95.07
2019-04-16T01:48:44.717Z,95.17
2019-04-16T01:49:44.622Z,94.98
2019-04-16T01:50:51.525Z,94.98
2019-04-16T01:51:44.695Z,95.17
2019-04-16T01:52:44.362Z,95.36
2019-04-16T01:53:44.319Z,95.93
2019-04-16T01:54:44.198Z,96.03
2019-04-16T01:55:44.199Z,96.03
2019-04-16T01:56:44.026Z,95.84
2019-04-16T01:57:43.938Z,95.84
2019-04-16T01:58:43.889Z,96.12
2019-04-16T01:59:43.811Z,96.22
2019-04-16T02:00:43.678Z,95.74
2019-04-16T02:01:44.245Z,95.84
2019-04-16T02:02:46.366Z,95.93
2019-04-16T02:03:43.422Z,95.84
2019-04-16T02:04:43.463Z,95.93
2019-04-16T02:05:43.249Z,95.93
2019-04-16T02:06:43.176Z,96.78
2019-04-16T02:07:43.146Z,96.59
2019-04-16T02:08:42.993Z,96.59
2019-04-16T02:09:42.927Z,96.31
2019-04-16T02:10:42.862Z,96.59
2019-04-16T02:11:42.741Z,96.88
2019-04-16T02:12:43.893Z,96.78
2019-04-16T02:13:45.834Z,96.69
2019-04-16T02:14:42.496Z,96.31
2019-04-16T02:15:42.485Z,96.59
2019-04-16T02:16:42.316Z,96.31
2019-04-16T02:17:42.223Z,96.59
2019-04-16T02:18:42.198Z,96.31
2019-04-16T02:19:42.068Z,96.59
2019-04-16T02:20:41.969Z,96.88
2019-04-16T02:21:42.119Z,97.07
2019-04-16T02:22:42.335Z,97.45
2019-04-16T02:23:41.829Z,97.17
2019-04-16T02:24:41.669Z,97.26
2019-04-16T02:25:51.366Z,97.45
2019-04-16T02:26:41.457Z,97.17
2019-04-16T02:27:41.439Z,97.26
2019-04-16T02:28:41.282Z,97.55
2019-04-16T02:29:41.284Z,97.26
2019-04-16T02:30:41.121Z,97.45
2019-04-16T02:31:43.117Z,97.55
2019-04-16T02:32:40.936Z,97.45
2019-04-16T02:33:40.861Z,97.64
2019-04-16T02:34:40.807Z,97.45
2019-04-16T02:35:40.685Z,97.17
2019-04-16T02:36:40.599Z,97.55
2019-04-16T02:37:42.545Z,97.36
2019-04-16T02:38:46.482Z,98.02
2019-04-16T02:39:49.086Z,98.21
2019-04-16T02:40:40.254Z,97.12
2019-04-16T02:41:40.210Z,97.64
2019-04-16T02:42:40.082Z,97.55
2019-04-16T02:43:41.213Z,97.45
2019-04-16T02:44:39.954Z,97.55
2019-04-16T02:45:39.829Z,97.55
2019-04-16T02:46:39.741Z,97.45
2019-04-16T02:47:42.186Z,97.64
2019-04-16T02:48:39.591Z,97.26
2019-04-16T02:49:39.511Z,97.92
2019-04-16T02:50:39.402Z,97.07
2019-04-16T02:51:41.210Z,97.17
2019-04-16T02:52:39.226Z,96.97
2019-04-16T02:53:39.167Z,97.74
2019-04-16T02:54:39.070Z,97.59
2019-04-16T02:55:42.607Z,97.97
2019-04-16T02:56:38.880Z,97.78
2019-04-16T02:57:38.794Z,97.97
2019-04-16T02:58:38.788Z,97.88
2019-04-16T02:59:42.643Z,97.78
2019-04-16T03:00:38.541Z,97.88
2019-04-16T03:01:38.512Z,97.59
2019-04-16T03:02:38.372Z,97.97
2019-04-16T03:03:38.325Z,98.07
2019-04-16T03:04:38.220Z,98.25
2019-04-16T03:05:38.226Z,98.25
2019-04-16T03:06:38.020Z,98.54
2019-04-16T03:07:38.029Z,98.25
2019-04-16T03:08:37.851Z,98.73
2019-04-16T03:09:40.235Z,98.82
2019-04-16T03:10:37.695Z,98.44
2019-04-16T03:11:37.651Z,99.01
2019-04-16T03:12:37.506Z,98.73
2019-04-16T03:13:37.419Z,99.20
2019-04-16T03:14:37.360Z,99.11
2019-04-16T03:15:37.264Z,99.39
2019-04-16T03:16:38.080Z,99.58
2019-04-16T03:17:39.560Z,98.54
2019-04-16T03:18:36.994Z,99.30
2019-04-16T03:19:38.901Z,99.11
2019-04-16T03:20:36.846Z,99.58
2019-04-16T03:21:36.795Z,99.49
2019-04-16T03:22:36.645Z,99.68
2019-04-16T03:24:12.547Z,99.87
2019-04-16T03:24:37.486Z,99.87
2019-04-16T03:25:36.404Z,99.58
2019-04-16T03:26:36.419Z,99.58
2019-04-16T03:27:36.224Z,99.49
2019-04-16T03:28:36.135Z,99.99
2019-04-16T03:29:37.159Z,99.99
2019-04-16T03:30:42.242Z,99.99
2019-04-16T03:31:35.881Z,99.99
2019-04-16T03:32:36.292Z,99.99
2019-04-16T03:33:35.725Z,99.99
2019-04-16T03:34:35.615Z,99.99
2019-04-16T03:35:36.621Z,99.99
2019-04-16T03:36:35.446Z,99.99
2019-04-16T03:37:35.370Z,99.99
2019-04-16T03:38:37.374Z,99.99
2019-04-16T03:39:35.214Z,99.99
2019-04-16T03:40:35.221Z,99.99
2019-04-16T03:41:35.013Z,99.99
2019-04-16T03:42:34.995Z,99.99
2019-04-16T03:43:34.841Z,99.99
2019-04-16T03:44:37.213Z,99.99
2019-04-16T03:45:37.617Z,99.99
2019-04-16T03:46:34.586Z,99.99
2019-04-16T03:47:34.503Z,99.99
2019-04-16T03:48:34.430Z,99.99
2019-04-16T03:49:34.428Z,99.99
2019-04-16T03:50:34.267Z,99.99
2019-04-16T03:51:35.646Z,99.99
2019-04-16T03:52:37.511Z,99.99
2019-04-16T03:53:33.996Z,99.99
2019-04-16T03:54:33.896Z,99.99
2019-04-16T03:55:33.888Z,99.99
2019-04-16T03:56:33.750Z,99.99
2019-04-16T03:57:33.892Z,99.99
2019-04-16T03:58:40.533Z,99.99
2019-04-16T03:59:33.461Z,99.99
2019-04-16T04:00:33.407Z,99.99
2019-04-16T04:01:33.290Z,99.99
2019-04-16T04:02:33.289Z,99.99
2019-04-16T04:03:33.123Z,99.99
2019-04-16T04:04:33.044Z,99.99
2019-04-16T04:05:34.955Z,99.99
2019-04-16T04:06:32.858Z,99.99
2019-04-16T04:07:32.801Z,99.99
2019-04-16T04:08:32.698Z,99.99
2019-04-16T04:09:32.606Z,99.99
2019-04-16T04:10:36.835Z,99.99
2019-04-16T04:11:32.429Z,99.99
2019-04-16T04:12:32.439Z,99.99
2019-04-16T04:13:32.253Z,99.99
2019-04-16T04:14:32.247Z,99.99
2019-04-16T04:15:32.115Z,99.99
2019-04-16T04:16:33.542Z,99.99
2019-04-16T04:17:31.905Z,99.99
2019-04-16T04:18:31.824Z,99.99
2019-04-16T04:19:31.769Z,99.99
2019-04-16T04:20:31.676Z,99.99
2019-04-16T04:21:31.565Z,99.99
2019-04-16T04:22:32.510Z,99.99
2019-04-16T04:23:31.392Z,99.99
2019-04-16T04:24:32.116Z,99.99
2019-04-16T04:25:36.066Z,99.99
2019-04-16T04:26:31.143Z,99.99
2019-04-16T04:27:31.048Z,99.99
2019-04-16T04:28:30.959Z,99.99
2019-04-16T04:29:30.878Z,99.99
2019-04-16T04:30:30.942Z,99.99
2019-04-16T04:31:32.309Z,99.99
2019-04-16T04:32:32.437Z,99.99
2019-04-16T04:33:31.559Z,99.99
2019-04-16T04:34:30.440Z,99.99
2019-04-16T04:35:30.446Z,99.99
2019-04-16T04:36:30.283Z,99.99
2019-04-16T04:37:32.050Z,99.99
2019-04-16T04:38:30.097Z,99.99
2019-04-16T04:39:30.019Z,99.99
2019-04-16T04:41:29.906Z,99.99
2019-04-16T04:42:29.833Z,99.99
2019-04-16T04:43:09.933Z,99.99
2019-04-16T04:43:32.022Z,99.99
2019-04-16T04:44:29.585Z,99.99
2019-04-16T04:45:30.518Z,99.99
2019-04-16T04:46:29.415Z,99.99
2019-04-16T04:47:30.426Z,99.99
2019-04-16T04:48:29.243Z,99.99
2019-04-16T04:49:31.098Z,99.99
2019-04-16T04:50:29.058Z,99.99
2019-04-16T04:51:29.127Z,99.99
2019-04-16T04:52:29.479Z,99.99
2019-04-16T04:53:31.437Z,99.99
2019-04-16T04:54:31.434Z,99.99
2019-04-16T04:55:28.630Z,99.99
2019-04-16T04:56:28.665Z,99.99
2019-04-16T04:57:31.142Z,99.99
2019-04-16T04:58:28.367Z,99.99
2019-04-16T04:59:28.282Z,99.99
2019-04-16T05:00:28.200Z,99.99
2019-04-16T05:01:28.130Z,99.99
2019-04-16T05:02:28.031Z,99.99
2019-04-16T05:03:27.944Z,99.99
2019-04-16T05:04:27.849Z,99.99
2019-04-16T05:05:27.771Z,99.99
2019-04-16T05:06:28.020Z,99.99
2019-04-16T05:07:29.336Z,99.99
2019-04-16T05:08:28.647Z,99.99
2019-04-16T05:09:29.324Z,99.99
2019-04-16T05:10:27.331Z,99.99
2019-04-16T05:11:27.265Z,99.99
2019-04-16T05:12:28.013Z,99.99
2019-04-16T05:13:27.077Z,99.99
2019-04-16T05:14:28.435Z,99.99
2019-04-16T05:15:29.443Z,99.99
2019-04-16T05:16:27.818Z,99.99
2019-04-16T05:17:26.736Z,99.99
2019-04-16T05:18:26.659Z,99.99
2019-04-16T05:19:26.570Z,99.99
2019-04-16T05:20:29.642Z,99.99
2019-04-16T05:21:26.397Z,99.99
2019-04-16T05:22:26.493Z,99.99
2019-04-16T05:23:26.255Z,99.99
2019-04-16T05:24:28.883Z,99.99
2019-04-16T05:25:26.049Z,99.99
2019-04-16T05:26:25.978Z,99.99
2019-04-16T05:27:29.091Z,99.99
2019-04-16T05:28:25.828Z,99.99
2019-04-16T05:29:25.703Z,99.99
2019-04-16T05:30:25.619Z,99.99
2019-04-16T05:31:26.191Z,99.99
2019-04-16T05:32:26.020Z,99.99
2019-04-16T05:33:25.362Z,99.99
2019-04-16T05:34:25.295Z,99.99
2019-04-16T05:35:25.187Z,99.99
2019-04-16T05:36:25.095Z,99.99
2019-04-16T05:37:25.030Z,99.99
2019-04-16T05:38:24.924Z,99.99
2019-04-16T05:39:28.340Z,99.99
2019-04-16T05:40:28.064Z,99.99
2019-04-16T05:41:24.666Z,99.82
2019-04-16T05:42:26.204Z,99.99
2019-04-16T05:43:24.499Z,99.73
2019-04-16T05:44:24.411Z,99.44
2019-04-16T05:45:24.330Z,99.99
2019-04-16T05:46:24.258Z,99.16
2019-04-16T05:47:24.170Z,98.97
2019-04-16T05:48:24.069Z,98.87
2019-04-16T05:49:25.876Z,99.11
2019-04-16T05:50:28.750Z,98.45
2019-04-16T05:51:23.954Z,98.54
2019-04-16T05:52:23.747Z,97.97
2019-04-16T05:53:23.658Z,98.07
2019-04-16T05:54:23.556Z,98.16
2019-04-16T05:55:23.469Z,97.69
2019-04-16T05:56:24.724Z,97.07
2019-04-16T05:57:26.125Z,96.79
2019-04-16T05:58:24.073Z,95.84
2019-04-16T05:59:23.134Z,95.84
2019-04-16T06:00:23.051Z,95.46
2019-04-16T06:01:22.963Z,95.22
2019-04-16T06:02:23.018Z,94.18
2019-04-16T06:03:23.516Z,93.04
2019-04-16T06:04:24.973Z,92.66
2019-04-16T06:05:26.810Z,93.04
2019-04-16T06:06:22.672Z,92.75
2019-04-16T06:07:22.481Z,92.51
2019-04-16T06:08:22.381Z,92.41
2019-04-16T06:09:22.294Z,92.41
2019-04-16T06:10:22.220Z,92.41
2019-04-16T06:11:29.853Z,91.37
2019-04-16T06:12:22.081Z,91.61
2019-04-16T06:13:21.974Z,90.47
2019-04-16T06:14:21.884Z,90.37
2019-04-16T06:15:22.573Z,90.08
2019-04-16T06:16:25.406Z,89.32
2019-04-16T06:17:21.649Z,87.90
2019-04-16T06:18:21.554Z,88.09
2019-04-16T06:19:21.470Z,88.51
2019-04-16T06:20:22.038Z,87.18
2019-04-16T06:21:25.040Z,87.18
2019-04-16T06:22:21.247Z,86.90
2019-04-16T06:23:21.148Z,86.80
2019-04-16T06:24:21.279Z,87.37
2019-04-16T06:25:20.984Z,87.08
2019-04-16T06:26:21.911Z,86.08
2019-04-16T06:27:20.832Z,86.18
2019-04-16T06:28:20.745Z,85.99
2019-04-16T06:29:20.659Z,84.98
2019-04-16T06:30:20.578Z,85.17
2019-04-16T06:31:20.504Z,84.22
2019-04-16T06:32:20.429Z,83.45
2019-04-16T06:33:20.350Z,82.41
2019-04-16T06:34:23.436Z,82.60
2019-04-16T06:35:20.274Z,81.55
2019-04-16T06:36:20.107Z,80.69
2019-04-16T06:37:21.583Z,80.35
2019-04-16T06:38:19.941Z,81.97
2019-04-16T06:39:19.856Z,80.83
2019-04-16T06:40:19.775Z,80.20
2019-04-16T06:41:19.697Z,79.53
2019-04-16T06:42:22.284Z,79.63
2019-04-16T06:43:19.546Z,78.49
2019-04-16T06:44:19.466Z,77.47
2019-04-16T06:45:19.676Z,78.72
2019-04-16T06:46:19.316Z,76.71
2019-04-16T06:47:19.213Z,76.71
2019-04-16T06:48:19.166Z,76.56
2019-04-16T06:49:19.236Z,77.51
2019-04-16T06:50:30.557Z,76.46
2019-04-16T06:51:18.900Z,75.79
2019-04-16T06:52:18.982Z,74.55
2019-04-16T06:53:19.876Z,74.74
2019-04-16T06:54:18.664Z,75.07
2019-04-16T06:55:18.575Z,75.83
2019-04-16T06:56:20.236Z,73.92
2019-04-16T06:57:18.419Z,72.43
2019-04-16T06:58:18.468Z,70.04
2019-04-16T06:59:18.260Z,68.70
2019-04-16T07:00:18.184Z,68.23
2019-04-16T07:01:18.105Z,69.09
2019-04-16T07:02:18.023Z,68.07
2019-04-16T07:03:17.958Z,66.54
2019-04-16T07:04:17.869Z,67.02
2019-04-16T07:05:17.995Z,66.54
2019-04-16T07:06:17.704Z,66.00
2019-04-16T07:07:17.625Z,64.85
2019-04-16T07:08:18.421Z,64.47
2019-04-16T07:09:17.486Z,64.85
2019-04-16T07:10:17.390Z,63.51
2019-04-16T07:11:17.328Z,64.18
2019-04-16T07:12:17.238Z,63.60
2019-04-16T07:13:17.230Z,62.74
2019-04-16T07:14:17.543Z,63.51
2019-04-16T07:15:22.569Z,64.79
2019-04-16T07:16:16.930Z,64.69
2019-04-16T07:17:18.276Z,63.16
2019-04-16T07:18:16.783Z,61.85
2019-04-16T07:19:17.693Z,62.23
2019-04-16T07:20:16.617Z,61.08
2019-04-16T07:21:17.584Z,59.55
2019-04-16T07:22:20.768Z,58.91
2019-04-16T07:23:16.471Z,58.05
2019-04-16T07:24:16.384Z,57.86
2019-04-16T07:25:16.630Z,57.95
2019-04-16T07:26:16.413Z,57.38
2019-04-16T07:27:19.647Z,58.24
2019-04-16T07:28:16.016Z,57.31
2019-04-16T07:29:16.013Z,56.54
2019-04-16T07:30:19.675Z,57.31
2019-04-16T07:31:31.760Z,59.61
2019-04-16T07:32:15.787Z,58.17
2019-04-16T07:33:15.628Z,57.34
2019-04-16T07:34:15.550Z,56.96
2019-04-16T07:35:15.462Z,57.70
2019-04-16T07:36:15.388Z,58.37
2019-04-16T07:37:15.321Z,58.01
2019-04-16T07:38:15.252Z,58.59
2019-04-16T07:39:28.694Z,59.26
2019-04-16T07:40:15.089Z,57.63
2019-04-16T07:41:17.009Z,54.85
2019-04-16T07:42:21.211Z,54.15
2019-04-16T07:43:15.965Z,55.01
2019-04-16T07:44:14.782Z,56.00
2019-04-16T07:45:14.708Z,54.17
2019-04-16T07:46:14.638Z,53.70
2019-04-16T07:47:19.832Z,52.74
2019-04-16T07:48:14.482Z,54.08
2019-04-16T07:49:14.431Z,54.37
2019-04-16T07:50:14.329Z,53.82
2019-04-16T07:51:14.293Z,54.30
2019-04-16T07:52:14.195Z,53.63
2019-04-16T07:53:14.488Z,52.86
2019-04-16T07:54:14.055Z,52.28
2019-04-16T07:55:13.957Z,53.63
2019-04-16T07:56:13.888Z,54.11
2019-04-16T07:57:13.812Z,53.36
2019-04-16T07:58:13.743Z,52.79
2019-04-16T07:59:13.670Z,52.50
2019-04-16T08:00:13.591Z,51.54
2019-04-16T08:01:16.268Z,51.93
2019-04-16T08:02:13.437Z,51.25
2019-04-16T08:03:13.364Z,51.54
2019-04-16T08:04:13.297Z,50.29
2019-04-16T08:05:13.209Z,50.39
2019-04-16T08:06:14.436Z,50.29
2019-04-16T08:07:13.061Z,50.96
2019-04-16T08:08:12.987Z,50.20
2019-04-16T08:09:12.937Z,50.78
2019-04-16T08:10:12.840Z,50.68
2019-04-16T08:11:12.766Z,50.01
2019-04-16T08:12:28.969Z,51.37
2019-04-16T08:13:14.182Z,51.18
2019-04-16T08:14:14.606Z,51.40
2019-04-16T08:15:15.286Z,49.57
2019-04-16T08:16:12.399Z,49.51
2019-04-16T08:17:12.321Z,49.12
2019-04-16T08:18:12.258Z,47.97
2019-04-16T08:19:15.027Z,47.97
2019-04-16T08:20:12.102Z,48.45
2019-04-16T08:21:12.530Z,48.16
2019-04-16T08:22:15.564Z,48.08
2019-04-16T08:23:11.883Z,48.28
2019-04-16T08:24:11.826Z,47.80
2019-04-16T08:25:11.742Z,46.93
2019-04-16T08:26:13.680Z,47.51
2019-04-16T08:27:18.046Z,46.93
2019-04-16T08:28:11.528Z,46.84
2019-04-16T08:29:11.462Z,48.30
2019-04-16T08:30:11.387Z,47.92
2019-04-16T08:31:12.729Z,47.53
2019-04-16T08:32:12.834Z,46.64
2019-04-16T08:33:11.618Z,47.00
2019-04-16T08:34:11.100Z,48.16
2019-04-16T08:35:11.018Z,47.89
2019-04-16T08:36:10.972Z,47.31
2019-04-16T08:37:10.877Z,46.36
2019-04-16T08:38:10.806Z,46.36
2019-04-16T08:39:10.748Z,47.10
2019-04-16T08:40:12.462Z,47.70
2019-04-16T08:41:12.731Z,47.39
2019-04-16T08:42:10.524Z,46.64
2019-04-16T08:43:10.452Z,46.84
2019-04-16T08:44:10.811Z,46.86
2019-04-16T08:45:10.314Z,46.86
2019-04-16T08:46:11.527Z,46.11
2019-04-16T08:47:12.105Z,45.83
2019-04-16T08:48:10.299Z,45.05
2019-04-16T08:49:10.034Z,45.15
2019-04-16T08:50:11.781Z,45.94
2019-04-16T08:51:09.879Z,45.46
2019-04-16T08:52:10.933Z,45.75
2019-04-16T08:53:13.539Z,44.49
2019-04-16T08:54:09.705Z,44.79
2019-04-16T08:55:09.594Z,44.89
2019-04-16T08:56:09.532Z,44.76
2019-04-16T08:57:09.453Z,44.67
2019-04-16T08:58:12.338Z,44.57
2019-04-16T08:59:10.724Z,44.57
2019-04-16T09:00:14.167Z,45.25
2019-04-16T09:01:09.173Z,44.31
2019-04-16T09:02:09.102Z,43.51
2019-04-16T09:03:09.039Z,43.61
2019-04-16T09:04:08.959Z,44.31
2019-04-16T09:05:11.459Z,44.49
2019-04-16T09:06:12.792Z,44.52
2019-04-16T09:07:12.219Z,43.27
2019-04-16T09:08:13.048Z,43.19
2019-04-16T09:09:14.343Z,42.90
2019-04-16T09:10:17.107Z,42.23
2019-04-16T09:11:21.780Z,42.63
2019-04-16T09:12:09.660Z,42.44
2019-04-16T09:13:08.404Z,41.75
2019-04-16T09:14:08.594Z,41.75
2019-04-16T09:15:08.204Z,42.40
2019-04-16T09:16:10.608Z,42.30
2019-04-16T09:17:09.757Z,42.52
2019-04-16T09:18:07.977Z,42.49
2019-04-16T09:19:07.922Z,43.15
2019-04-16T09:20:07.866Z,42.57
2019-04-16T09:21:10.579Z,42.49
2019-04-16T09:22:07.700Z,42.88
2019-04-16T09:23:07.633Z,42.79
2019-04-16T09:24:09.393Z,42.61
2019-04-16T09:25:12.494Z,43.38
2019-04-16T09:26:14.115Z,43.38
2019-04-16T09:27:07.355Z,42.52
2019-04-16T09:28:09.890Z,42.54
2019-04-16T09:29:09.941Z,41.94
2019-04-16T09:30:09.853Z,41.48
2019-04-16T09:31:07.076Z,42.05
2019-04-16T09:32:07.000Z,42.63
2019-04-16T09:33:06.931Z,42.44
2019-04-16T09:34:07.104Z,42.56
2019-04-16T09:35:10.091Z,42.63
2019-04-16T09:36:06.725Z,41.40
2019-04-16T09:37:06.665Z,41.28
2019-04-16T09:38:09.328Z,41.28
2019-04-16T09:39:06.520Z,41.57
2019-04-16T09:40:16.704Z,41.28
2019-04-16T09:41:06.380Z,41.09
2019-04-16T09:42:06.309Z,41.78
2019-04-16T09:43:16.583Z,41.48
2019-04-16T09:44:06.172Z,41.57
2019-04-16T09:45:06.125Z,41.28
2019-04-16T09:46:10.487Z,41.50
2019-04-16T09:47:05.971Z,41.50
2019-04-16T09:48:05.898Z,42.68
2019-04-16T09:49:06.227Z,43.54
2019-04-16T09:50:09.650Z,41.42
2019-04-16T09:51:05.698Z,41.42
2019-04-16T09:52:05.631Z,41.33
2019-04-16T09:53:05.557Z,40.77
2019-04-16T09:54:05.486Z,39.90
2019-04-16T09:55:05.482Z,40.50
2019-04-16T09:56:05.350Z,39.29
2019-04-16T09:57:05.294Z,41.13
2019-04-16T09:58:06.936Z,40.82
2019-04-16T09:59:05.153Z,40.15
2019-04-16T10:00:08.198Z,39.95
2019-04-16T10:01:05.017Z,41.02
2019-04-16T10:02:04.943Z,41.20
2019-04-16T10:03:04.886Z,40.82
2019-04-16T10:04:04.813Z,41.11
2019-04-16T10:05:04.773Z,41.03
2019-04-16T10:06:05.753Z,40.15
2019-04-16T10:07:04.624Z,40.15
2019-04-16T10:08:04.532Z,40.05
2019-04-16T10:09:04.467Z,40.22
2019-04-16T10:10:04.419Z,40.51
2019-04-16T10:11:06.271Z,41.20
2019-04-16T10:12:04.935Z,42.08
2019-04-16T10:13:04.221Z,41.23
2019-04-16T10:14:04.125Z,41.52
2019-04-16T10:15:04.098Z,40.17
2019-04-16T10:16:04.020Z,39.20
2019-04-16T10:17:03.925Z,39.49
2019-04-16T10:18:03.872Z,40.36
2019-04-16T10:19:07.873Z,41.05
2019-04-16T10:20:03.730Z,40.98
2019-04-16T10:21:03.667Z,39.53
2019-04-16T10:22:03.615Z,41.56
2019-04-16T10:23:03.511Z,41.94
2019-04-16T10:24:03.445Z,40.19
2019-04-16T10:25:03.387Z,40.20
2019-04-16T10:26:03.321Z,38.64
2019-04-16T10:27:04.373Z,39.61
2019-04-16T10:28:04.963Z,39.80
2019-04-16T10:29:05.864Z,40.38
2019-04-16T10:30:03.034Z,40.67
2019-04-16T10:31:03.382Z,40.28
2019-04-16T10:32:02.899Z,40.86
2019-04-16T10:33:02.856Z,39.41
2019-04-16T10:34:02.800Z,38.95
2019-04-16T10:35:02.699Z,39.03
2019-04-16T10:36:04.560Z,39.87
2019-04-16T10:37:02.567Z,40.09
2019-04-16T10:38:02.496Z,39.61
2019-04-16T10:39:02.426Z,40.11
2019-04-16T10:40:04.890Z,39.72
2019-04-16T10:41:02.314Z,39.64
2019-04-16T10:42:02.231Z,38.48
2019-04-16T10:43:02.178Z,38.02
2019-04-16T10:44:02.099Z,38.02
2019-04-16T10:45:02.028Z,37.32
2019-04-16T10:46:01.984Z,37.70
2019-04-16T10:47:01.922Z,37.50
2019-04-16T10:48:01.837Z,37.79
2019-04-16T10:49:01.784Z,39.43
2019-04-16T10:50:01.693Z,39.84
2019-04-16T10:51:01.637Z,39.06
2019-04-16T10:52:01.544Z,38.58
2019-04-16T10:53:01.506Z,38.29
2019-04-16T10:54:01.427Z,38.20
2019-04-16T10:55:01.344Z,37.21
2019-04-16T10:56:01.295Z,37.21
2019-04-16T10:57:01.224Z,37.21
2019-04-16T10:58:01.418Z,37.30
2019-04-16T10:59:01.065Z,37.32
2019-04-16T11:00:01.048Z,37.52
2019-04-16T11:01:01.172Z,37.50
2019-04-16T11:02:00.896Z,37.90
2019-04-16T11:03:00.830Z,36.63
2019-04-16T11:04:00.738Z,36.72
2019-04-16T11:05:03.048Z,37.70
2019-04-16T11:06:00.608Z,37.79
2019-04-16T11:07:00.520Z,36.84
2019-04-16T11:08:00.708Z,36.53
2019-04-16T11:09:00.389Z,36.26
2019-04-16T11:10:00.325Z,35.57
2019-04-16T11:11:00.274Z,35.45
2019-04-16T11:12:04.809Z,35.45
2019-04-16T11:13:00.148Z,35.55
2019-04-16T11:14:00.674Z,35.71
2019-04-16T11:14:59.982Z,37.15
2019-04-16T11:15:59.926Z,37.10
2019-04-16T11:16:59.893Z,36.52
2019-04-16T11:18:00.797Z,36.24
2019-04-16T11:18:59.721Z,36.82
2019-04-16T11:20:00.176Z,36.07
2019-04-16T11:20:59.677Z,36.38
2019-04-16T11:21:59.909Z,36.07
2019-04-16T11:22:59.436Z,34.54
2019-04-16T11:23:59.366Z,34.25
2019-04-16T11:24:59.315Z,34.89
2019-04-16T11:25:59.242Z,35.55
2019-04-16T11:26:59.158Z,36.05
2019-04-16T11:27:59.098Z,35.95
2019-04-16T11:28:59.022Z,35.88
2019-04-16T11:29:58.954Z,35.78
2019-04-16T11:30:58.939Z,35.99
2019-04-16T11:31:58.820Z,35.02
2019-04-16T11:32:58.774Z,33.84
2019-04-16T11:33:58.684Z,32.87
2019-04-16T11:34:58.629Z,33.34
2019-04-16T11:35:58.571Z,34.31
2019-04-16T11:36:58.762Z,35.18
2019-04-16T11:37:58.437Z,35.00
2019-04-16T11:38:58.391Z,35.50
2019-04-16T11:39:58.303Z,35.41
2019-04-16T11:40:58.208Z,35.42
2019-04-16T11:41:58.155Z,34.65
2019-04-16T11:42:58.175Z,33.97
2019-04-16T11:43:58.017Z,33.97
2019-04-16T11:44:57.940Z,33.95
2019-04-16T11:45:57.878Z,35.33
2019-04-16T11:46:57.816Z,35.31
2019-04-16T11:47:57.774Z,35.91
2019-04-16T11:48:57.678Z,34.15
2019-04-16T11:49:57.620Z,33.84
2019-04-16T11:50:57.544Z,34.12
2019-04-16T11:51:57.481Z,33.42
2019-04-16T11:52:58.473Z,33.40
2019-04-16T11:53:57.315Z,34.68
2019-04-16T11:55:00.641Z,35.08
2019-04-16T11:55:57.183Z,34.02
2019-04-16T11:56:59.250Z,33.83
2019-04-16T11:57:57.045Z,33.91
2019-04-16T11:58:57.593Z,34.29
2019-04-16T12:00:06.400Z,34.39
2019-04-16T12:00:56.859Z,34.60
2019-04-16T12:01:56.798Z,34.20
2019-04-16T12:02:56.727Z,34.99
2019-04-16T12:03:56.707Z,34.31
2019-04-16T12:04:59.239Z,34.13
2019-04-16T12:05:56.512Z,34.15
2019-04-16T12:06:56.435Z,33.59
2019-04-16T12:07:56.346Z,32.92
2019-04-16T12:08:56.285Z,32.81
2019-04-16T12:09:56.217Z,32.71
2019-04-16T12:10:56.174Z,32.62
2019-04-16T12:11:56.107Z,31.81
2019-04-16T12:12:56.009Z,33.26
2019-04-16T12:13:55.934Z,33.65
2019-04-16T12:14:55.866Z,33.75
2019-04-16T12:15:55.870Z,32.97
2019-04-16T12:16:55.760Z,33.57
2019-04-16T12:17:56.694Z,32.71
2019-04-16T12:18:55.633Z,32.14
2019-04-16T12:19:55.639Z,32.23
2019-04-16T12:20:55.481Z,32.42
2019-04-16T12:21:55.461Z,32.15
2019-04-16T12:22:55.322Z,32.82
2019-04-16T12:23:55.315Z,32.24
2019-04-16T12:24:55.217Z,32.92
2019-04-16T12:25:55.109Z,33.12
2019-04-16T12:26:55.140Z,33.12
2019-04-16T12:27:54.981Z,32.64
2019-04-16T12:28:54.903Z,32.56
2019-04-16T12:29:54.927Z,32.33
2019-04-16T12:30:54.772Z,33.20
2019-04-16T12:31:54.774Z,33.87
2019-04-16T12:32:55.670Z,35.15
2019-04-16T12:33:54.569Z,34.27
2019-04-16T12:34:54.534Z,33.29
2019-04-16T12:35:54.454Z,33.67
2019-04-16T12:36:54.386Z,34.17
2019-04-16T12:37:54.479Z,34.19
2019-04-16T12:38:54.268Z,33.87
2019-04-16T12:39:54.150Z,35.04
2019-04-16T12:40:54.253Z,34.57
2019-04-16T12:41:54.054Z,34.55
2019-04-16T12:42:53.944Z,35.05
2019-04-16T12:43:53.920Z,35.25
2019-04-16T12:44:53.842Z,35.15
2019-04-16T12:45:53.872Z,34.67
2019-04-16T12:46:53.740Z,34.17
2019-04-16T12:47:53.625Z,34.45
2019-04-16T12:48:53.672Z,34.25
2019-04-16T12:49:53.509Z,35.21
2019-04-16T12:50:53.633Z,35.50
2019-04-16T12:51:53.357Z,36.58